Spring Valley, Nevada
Current Conditions -  °F | °C
As of 6:56 AM on Saturday 25 Oct 2014 (Local Time) from KLAS Reporting Station
Few Clouds Few Clouds  
Wind Chill: 64°   Ceiling: Unl
Heat Index: 64°   Visibility: 10mi
Dew Point: 39°   Wind: 7mph
Humidity: 40%   Direction: 210°SSW
Pressure: 29.98"   Gusts: NA
Location:  36.11°N, 115.24°W
Report Text: KLAS 251356Z 21006KT 10SM FEW250 18/04 A2998 RMK AO2 SLP135 T01780039
Loading
Personal Weather Stations






























Interactive Weather Map
Tropical Storm Tracking
New forecast layout! Learn more

10-Day Weather Forecast

Advertisements
Track Severe Weather on mobile